• Join FlightAware (Why Join?)
  • Login
  • US Flag 
07:26PM EDT


 

Airport Tracker/Info


-or-


 

Live Flight TrackerFlight Track Log ✈ N612CT ✈ 27-Mar-2014 ✈ KAPF - KTLH

Flight Track Log - Related Links

Times and Time Zones

All times are in EDT time to prevent confusion due to time zone crossing. See the N612CT flight status page for this flight to view local times or setup timezone preferences in your user account.

Time Position Orientation Groundspeed Altitude Reporting Facility
EDT Latitude Longitude Course Direction KTS MPH feet Rate Location/Type
06:37AM 26.4379 -81.8000 North  Level FlightAware Approximate
06:38AM 26.4862 -81.8020 355° North  Level FlightAware Approximate
06:39AM 26.5343 -81.8071 355° North  Level FlightAware Approximate
06:40AM 26.5824 -81.8121 355° North  Level FlightAware Approximate
06:41AM 26.6305 -81.8172 355° North  Level FlightAware Approximate
06:42AM 26.6786 -81.8222 355° North  Level FlightAware Approximate
06:43AM 26.7267 -81.8273 355° North  Level FlightAware Approximate
06:44AM 26.7749 -81.8324 355° North  Level FlightAware Approximate
06:45AM 26.8230 -81.8374 355° North  Level FlightAware Approximate
06:46AM 26.8711 -81.8425 355° North  Level FlightAware Approximate
06:46AM 26.8211 -81.8700 355° North 173 199 8,000  Level Miami Center
06:47AM 26.9192 -81.8476 355° North  Level FlightAware Approximate
06:47AM 26.8689 -81.8767 353° North 184 212 8,000  Level Miami Center
06:48AM 26.9673 -81.8526 355° North  Level FlightAware Approximate
06:48AM 26.9169 -81.8811 355° North 179 206 7,900  Level Miami Center
06:49AM 27.0154 -81.8577 355° North  Level FlightAware Approximate
06:49AM 26.9647 -81.8878 353° North 179 206 7,900  Level Miami Center
06:50AM 27.0636 -81.8628 355° North  Level FlightAware Approximate
06:50AM 27.0144 -81.8947 353° North 179 206 7,900  Level Miami Center
06:51AM 27.0622 -81.9014 353° North 179 206 7,900  Level Miami Center
06:52AM 27.1122 -81.9083 353° North 179 206 7,900  Level Miami Center
06:53AM 27.1600 -81.9128 355° North 179 206 7,900  Level Miami Center
06:54AM 27.2078 -81.9172 355° North 179 206 7,900  Level Miami Center
06:55AM 27.2556 -81.9239 353° North 179 206 7,900  Level Miami Center
06:56AM 27.3033 -81.9306 353° North 179 206 8,000  Climbing Miami Center
06:57AM 27.3511 -81.9350 355° North 179 206 8,000  Level Miami Center
06:58AM 27.3989 -81.9419 353° North 179 206 8,000  Level Miami Center
06:59AM 27.4467 -81.9486 353° North 179 206 8,000  Level Miami Center
07:00AM 27.4944 -81.9531 355° North 179 206 8,000  Level Miami Center
07:01AM 27.5444 -81.9578 355° North 174 200 8,000  Level Miami Center
07:02AM 27.5922 -81.9644 353° North 169 194 8,000  Level Miami Center
07:03AM 27.6400 -81.9689 355° North 169 194 8,000  Level Miami Center
07:04AM 27.6797 -81.9731 355° North 164 189 8,000  Level Miami Center
07:05AM 27.7336 -81.9803 353° North 164 189 8,000  Level Miami Center
07:06AM 27.7772 -81.9869 352° North 159 183 8,000  Level Miami Center
07:07AM 27.8269 -81.9961 351° North 159 183 8,000  Level Miami Center
07:08AM 27.9000 -82.0000 357° North 164 189 8,000  Level Tampa TRACON
07:09AM 27.9500 -82.0167 344° North 164 189 8,000  Level Tampa TRACON
07:10AM 27.9833 -82.0167 360° North 165 190 8,000  Level Tampa TRACON
07:11AM 28.0167 -82.0333 336° Northwest 157 181 8,000 -180 Level Tampa TRACON
07:12AM 28.0667 -82.0667 330° Northwest 159 183 7,700 -420 Descending Tampa TRACON
07:13AM 28.1000 -82.0833 336° Northwest 173 199 7,200 -480 Descending Tampa TRACON
07:14AM 28.1333 -82.1167 319° Northwest 179 206 6,800 -540 Descending Tampa TRACON
07:15AM 28.1833 -82.1500 330° Northwest 181 208 6,200 -420 Descending Tampa TRACON
07:16AM 28.2333 -82.1667 344° North 181 208 6,000 -120 Descending Tampa TRACON
07:17AM 28.2833 -82.2000 330° Northwest 173 199 6,000  Level Tampa TRACON
07:18AM 28.3167 -82.2333 319° Northwest 168 193 6,000  Level Tampa TRACON
07:19AM 28.3667 -82.2500 344° North 172 198 6,000  Level Tampa TRACON
07:20AM 28.4167 -82.2833 330° Northwest 174 200 6,000  Level Tampa TRACON
07:23AM 28.5097 -82.3492 328° Northwest 172 198 6,000  Level Jacksonville Center
07:24AM 28.5517 -82.3725 334° Northwest 170 196 6,000  Level Jacksonville Center
07:25AM 28.6019 -82.4056 330° Northwest 169 194 6,000  Level Jacksonville Center
07:26AM 28.6458 -82.4336 331° Northwest 173 199 6,000  Level Jacksonville Center
07:27AM 28.6833 -82.4594 329° Northwest 174 200 6,000  Level Jacksonville Center
07:28AM 28.7314 -82.4878 333° Northwest 171 197 6,000  Level Jacksonville Center
07:29AM 28.7714 -82.5158 328° Northwest 173 199 6,000  Level Jacksonville Center
07:30AM 28.8153 -82.5442 331° Northwest 173 199 6,000 -240 Level Jacksonville Center
07:31AM 28.8569 -82.5703 331° Northwest 176 203 5,600 -480 Descending Jacksonville Center
07:32AM 28.9031 -82.6008 330° Northwest 191 220 5,100 -480 Descending Jacksonville Center
07:33AM 28.9386 -82.6197 335° Northwest 193 222 4,800 -600 Descending Jacksonville Center
07:33AM 28.9469 -82.6269 323° Northwest 193 222 4,600 -540 Descending Jacksonville Center
07:34AM 28.9825 -82.6506 330° Northwest 193 222 4,300 -480 Descending Jacksonville Center
07:34AM 28.9886 -82.6553 326° Northwest 192 221 4,200 -240 Descending Jacksonville Center
07:35AM 29.0306 -82.6789 334° Northwest 193 222 4,100 -240 Descending Jacksonville Center
07:35AM 29.0367 -82.6836 326° Northwest 192 221 4,000  Descending Jacksonville Center
07:36AM 29.0744 -82.7097 329° Northwest 193 222 4,100  Climbing Jacksonville Center
07:37AM 29.1183 -82.7381 331° Northwest 182 209 4,100  Level Jacksonville Center
07:38AM 29.1642 -82.7667 331° Northwest 182 209 4,100  Level Jacksonville Center
07:39AM 29.2081 -82.7950 331° Northwest 182 209 4,100  Level Jacksonville Center
07:40AM 29.2519 -82.8236 330° Northwest 182 209 4,100  Level Jacksonville Center
07:41AM 29.2958 -82.8522 330° Northwest 182 209 4,100  Level Jacksonville Center
07:42AM 29.3394 -82.8806 330° Northwest 182 209 4,100  Level Jacksonville Center
07:43AM 29.3856 -82.9092 332° Northwest 182 209 4,100  Level Jacksonville Center
07:44AM 29.4314 -82.9378 331° Northwest 182 209 4,100  Level Jacksonville Center
07:45AM 29.4753 -82.9689 328° Northwest 182 209 4,100  Level Jacksonville Center
07:46AM 29.5211 -82.9975 331° Northwest 187 215 4,100  Level Jacksonville Center
07:47AM 29.5650 -83.0264 330° Northwest 182 209 4,100  Level Jacksonville Center
07:48AM 29.6047 -83.0622 322° Northwest 182 209 4,100  Level Jacksonville Center
07:49AM 29.6317 -83.1006 309° West 182 209 4,100  Level Jacksonville Center
07:50AM 29.6608 -83.1483 305° West 182 209 4,100  Level Jacksonville Center
07:51AM 29.6878 -83.1939 304° West 177 204 4,100  Level Jacksonville Center
07:52AM 29.7169 -83.2417 305° West 177 204 4,100  Level Jacksonville Center
07:53AM 29.7461 -83.2872 306° West 177 204 4,100  Level Jacksonville Center
07:54AM 29.7750 -83.3328 306° West 177 204 4,100  Level Jacksonville Center
07:55AM 29.8022 -83.3783 305° West 177 204 4,100  Level Jacksonville Center
07:56AM 29.8311 -83.4242 306° West 177 204 4,100  Level Jacksonville Center
07:57AM 29.8603 -83.4697 306° West 177 204 4,100  Level Jacksonville Center
07:58AM 29.8872 -83.5156 304° West 177 204 4,100  Level Jacksonville Center
07:59AM 29.9139 -83.5611 304° West 177 204 4,100  Level Jacksonville Center
08:00AM 29.9450 -83.6069 308° West 177 204 4,100  Level Jacksonville Center
08:01AM 29.9700 -83.6528 302° West 177 204 4,100 -60 Level Jacksonville Center
08:02AM 29.9989 -83.6983 306° West 177 204 4,000  Descending Jacksonville Center
08:03AM 30.0278 -83.7442 306° West 177 204 4,100  Climbing Jacksonville Center
08:04AM 30.0547 -83.7878 306° West 177 204 4,000  Descending Jacksonville Center
08:05AM 30.0836 -83.8336 306° West 177 204 4,100  Climbing Jacksonville Center
08:06AM 30.1103 -83.8819 303° West 177 204 4,100  Level Jacksonville Center
08:07AM 30.1369 -83.9278 304° West 172 198 4,100 -120 Level Jacksonville Center
08:08AM 30.1658 -83.9736 306° West 172 198 3,900 -360 Descending Jacksonville Center
08:09AM 30.1947 -84.0222 305° West 177 204 3,400 -540 Descending Jacksonville Center
08:10AM 30.2233 -84.0728 303° West 182 209 2,900 -540 Descending Jacksonville Center
08:11AM 30.2542 -84.1261 304° West 192 221 2,400 -540 Descending Jacksonville Center
08:13AM 30.3025 -84.1954 308° West  Level FlightAware Approximate
08:20AM 30.3833 -84.3500 295° West  Level FlightAware Approximate
08:21AM 30.3967 -84.3509 North  Level Estimated
08:22AM 30.3967 -84.3509 295° West  Level Estimated
08:23AM 30.3967 -84.3509 177° South  Level Estimated
08:24AM 30.3967 -84.3509 295° West  Level Estimated
08:25AM 30.3967 -84.3509 177° South  Level Estimated